• Join FlightAware (Why Join?)
  • Login
  • US Flag 
08:04PM EDT


 

Airport Tracker/Info


-or-


 

Live Flight TrackerFlight Track Log ✈ N516QS ✈ 17-Apr-2013 ✈ MYNN / NAS - KHPN

Flight Track Log - Related Links

Times and Time Zones

All times are in EDT time to prevent confusion due to time zone crossing. See the N516QS flight status page for this flight to view local times or setup timezone preferences in your user account.

Time Position Orientation Groundspeed Altitude Reporting Facility
EDT Latitude Longitude Course Direction KTS MPH feet Rate Location/Type
07:16PM 25.0761 -77.3681 24° Northeast 486 559 7,000  Level Miami Center
07:17PM 25.1494 -77.3433 17° North 389 448 10,800 3,000 Climbing Miami Center
07:18PM 25.2353 -77.3114 19° North 338 389 13,000 2,160 Climbing Miami Center
07:19PM 25.3336 -77.2728 20° North 338 389 15,200 2,220 Climbing Miami Center
07:20PM 25.4339 -77.2478 13° North 348 400 17,500 2,160 Climbing Miami Center
07:21PM 25.5383 -77.2594 354° North 363 418 19,600 2,100 Climbing Miami Center
07:22PM 25.7240 -77.0798 24° Northeast  Level FlightAware Approximate
07:22PM 25.6469 -77.2736 353° North 371 427 21,800  Level Miami Center
07:23PM 25.7453 -77.2856 354° North 381 438 23,500 1,920 Climbing Miami Center
07:24PM 25.8603 -77.2975 355° North 399 459 25,700 2,220 Climbing Miami Center
07:25PM 25.9814 -77.3119 354° North 416 479 28,000 2,220 Climbing Miami Center
07:26PM 26.1044 -77.3261 354° North 435 501 30,200 2,100 Climbing Miami Center
07:27PM 26.2319 -77.3383 355° North 446 513 32,300 2,040 Climbing Miami Center
07:28PM 26.3553 -77.3503 355° North 446 513 34,300 2,100 Climbing Miami Center
07:29PM 26.4806 -77.3625 355° North 446 513 36,500 2,040 Climbing Miami Center
07:30PM 26.6036 -77.3817 352° North 446 513 38,400 1,560 Climbing Miami Center
07:31PM 26.7228 -77.4053 350° North 446 513 39,700 1,140 Climbing Miami Center
07:32PM 26.8522 -77.4222 353° North 453 521 40,700 600 Climbing Miami Center
07:33PM 26.9817 -77.4486 350° North 459 528 41,000 120 Climbing Miami Center
07:34PM 27.1111 -77.4631 354° North 470 541 41,000  Level Miami Center
07:35PM 27.2550 -77.4897 351° North 470 541 41,000  Level Miami Center
07:36PM 27.3867 -77.5114 352° North 470 541 41,000  Level Miami Center
07:37PM 27.5203 -77.5097 North 465 535 41,000  Level Miami Center
07:38PM 27.6414 -77.5197 356° North 470 541 41,000  Level Miami Center
07:39PM 27.7750 -77.5275 357° North 475 547 41,000  Level Miami Center
07:40PM 27.9022 -77.5378 356° North 475 547 41,000  Level Miami Center
07:41PM 28.0358 -77.5456 357° North 475 547 41,000  Level Miami Center
07:42PM 28.1694 -77.5558 356° North 475 547 41,000  Level Miami Center
07:43PM 28.3008 -77.5661 356° North 475 547 41,000  Level Miami Center
07:44PM 28.4283 -77.5739 357° North 475 547 41,000  Level Miami Center
07:45PM 28.5597 -77.5842 356° North 470 541 41,000  Level Miami Center
07:46PM 28.6764 -77.5897 358° North 463 533 41,000  Level Miami Center
07:47PM 28.8164 -77.6025 355° North 468 539 41,000  Level Miami Center
07:48PM 28.9478 -77.6128 356° North 463 533 41,000  Level Miami Center
07:49PM 29.0833 -77.6233 356° North 463 533 41,000  Level Miami Center
07:50PM 29.2125 -77.6314 357° North 463 533 41,000  Level Miami Center
07:51PM 29.3586 -77.6419 356° North 474 545 41,000  Level Miami Center
07:52PM 29.4900 -77.6522 356° North 474 545 41,000  Level Miami Center
07:55PM 29.7483 -77.6664 357° North 457 526 41,000  Level Jacksonville Center
07:56PM 29.8928 -77.6778 356° North 474 545 41,000  Level Jacksonville Center
07:57PM 30.0244 -77.6850 357° North 474 545 41,000  Level Jacksonville Center
07:58PM 30.1542 -77.6947 356° North 471 542 41,000  Level Jacksonville Center
07:59PM 30.2750 -77.6883 North 471 542 41,000  Level Jacksonville Center
08:00PM 30.4050 -77.7028 355° North 471 542 41,000  Level Jacksonville Center
08:01PM 30.5458 -77.7289 351° North 466 536 41,000  Level Jacksonville Center
08:02PM 30.6686 -77.7175 North 471 542 41,000  Level Jacksonville Center
08:03PM 30.7986 -77.7322 354° North 471 542 41,000  Level Jacksonville Center
08:04PM 30.9308 -77.7492 354° North 471 542 41,000  Level Jacksonville Center
08:05PM 31.0631 -77.7661 354° North 471 542 41,000  Level Jacksonville Center
08:06PM 31.1947 -77.7686 359° North 471 542 41,000  Level Jacksonville Center
08:07PM 31.3267 -77.7808 355° North 471 542 41,000  Level Jacksonville Center
08:08PM 31.4583 -77.7883 357° North 471 542 41,000  Level Jacksonville Center
08:09PM 31.5900 -77.7933 358° North 471 542 41,000  Level Jacksonville Center
08:10PM 31.7239 -77.8006 357° North 471 542 41,000  Level Jacksonville Center
08:11PM 31.8561 -77.8153 355° North 471 542 41,000  Level Jacksonville Center
08:12PM 31.9881 -77.8275 356° North 476 548 41,000  Level Jacksonville Center
08:13PM 32.1219 -77.8372 356° North 481 554 41,000  Level Jacksonville Center
08:14PM 32.2581 -77.8469 357° North 486 559 41,000  Level Jacksonville Center
08:15PM 32.3942 -77.8592 356° North 486 559 41,000  Level Jacksonville Center
08:16PM 32.5281 -77.8664 357° North 480 552 41,000  Level Jacksonville Center
08:17PM 32.6614 -77.8639 North 485 558 41,000  Level Jacksonville Center
08:18PM 32.7961 -77.8342 11° North 480 552 41,000  Level Jacksonville Center
08:19PM 32.9347 -77.8042 10° North 480 552 41,000  Level Jacksonville Center
08:21PM 33.2619 -77.7372 10° North 489 563 41,000  Level Washington Center
08:22PM 33.3981 -77.7058 11° North 489 563 41,000  Level Washington Center
08:23PM 33.5361 -77.6769 10° North 489 563 41,000  Level Washington Center
08:24PM 33.6681 -77.6478 10° North 489 563 41,000  Level Washington Center
08:25PM 33.8042 -77.6161 11° North 489 563 41,000  Level Washington Center
08:26PM 33.9403 -77.5869 10° North 489 563 41,000  Level Washington Center
08:27PM 34.0764 -77.5578 10° North 489 563 41,000  Level Washington Center
08:28PM 34.2000 -77.5331 North 489 563 41,000  Level Washington Center
08:29PM 34.3339 -77.5058 10° North 489 563 41,000  Level Washington Center
08:30PM 34.4700 -77.4764 10° North 489 563 41,000  Level Washington Center
08:31PM 34.6061 -77.4342 14° North 489 563 41,000  Level Washington Center
08:32PM 34.7325 -77.3686 23° Northeast 489 563 41,000  Level Washington Center
08:33PM 34.8692 -77.2958 24° Northeast 489 563 41,000  Level Washington Center
08:34PM 34.9972 -77.2275 24° Northeast 489 563 41,000  Level Washington Center
08:35PM 35.1214 -77.1614 24° Northeast 489 563 41,000  Level Washington Center
08:36PM 35.2517 -77.0928 23° Northeast 489 563 41,000  Level Washington Center
08:37PM 35.3797 -77.0239 24° Northeast 495 570 41,000  Level Washington Center
08:38PM 35.5078 -76.9547 24° Northeast 495 570 41,000  Level Washington Center
08:39PM 35.6378 -76.8878 23° Northeast 495 570 41,000  Level Washington Center
08:40PM 35.7469 -76.8281 24° Northeast 489 563 41,000  Level Washington Center
08:41PM 35.8750 -76.7583 24° Northeast 489 563 41,000  Level Washington Center
08:42PM 36.0008 -76.6933 23° Northeast 489 563 41,000  Level Washington Center
08:43PM 36.1286 -76.6233 24° Northeast 489 563 41,000  Level Washington Center
08:44PM 36.2544 -76.5528 24° Northeast 489 563 41,000  Level Washington Center
08:45PM 36.3803 -76.4847 24° Northeast 489 563 41,000  Level Washington Center
08:46PM 36.5058 -76.4164 24° Northeast 483 556 41,000  Level Washington Center
08:47PM 36.6336 -76.3478 23° Northeast 483 556 41,000  Level Washington Center
08:48PM 36.7717 -76.2661 25° Northeast 488 562 41,000  Level Washington Center
08:49PM 36.8889 -76.2022 24° Northeast 494 568 41,000  Level Washington Center
08:50PM 37.0228 -76.1408 20° North 494 568 41,000  Level Washington Center
08:51PM 37.1461 -76.0714 24° Northeast 500 575 41,000  Level Washington Center
08:52PM 37.2756 -76.0017 23° Northeast 500 575 41,000  Level Washington Center
08:53PM 37.4011 -75.9344 23° Northeast 495 570 41,000  Level Washington Center
08:54PM 37.5306 -75.8642 23° Northeast 495 570 41,000  Level Washington Center
08:55PM 37.6494 -75.7781 30° Northeast 495 570 41,000  Level Washington Center
08:56PM 37.7811 -75.6786 31° Northeast 495 570 41,000  Level Washington Center
08:57PM 37.8978 -75.5892 31° Northeast 495 570 41,000  Level Washington Center
08:58PM 38.0167 -75.4969 31° Northeast 495 570 41,000  Level Washington Center
08:59PM 38.1397 -75.4122 28° Northeast 490 564 41,000  Level Washington Center
09:00PM 38.2644 -75.3353 26° Northeast 490 564 41,000  Level Washington Center
09:01PM 38.3894 -75.2581 26° Northeast 495 570 41,000  Level Washington Center
09:02PM 38.5144 -75.1697 29° Northeast 495 570 41,000  Level Washington Center
09:03PM 38.6411 -75.0947 25° Northeast 489 563 41,000  Level Washington Center
09:04PM 38.7658 -75.0167 26° Northeast 489 563 41,000 -480 Level Washington Center
09:05PM 38.8864 -74.9383 27° Northeast 489 563 40,100 -1,860 Descending Washington Center
09:06PM 39.0069 -74.8597 27° Northeast 489 563 37,300 -2,640 Descending Washington Center
09:07PM 39.1231 -74.7731 30° Northeast 479 551 34,900 -2,520 Descending Washington Center
09:08PM 39.2306 -74.6644 38° Northeast 479 551 32,300 -2,280 Descending Washington Center
09:08PM 39.2625 -74.6242 44° Northeast 482 555 31,800 -2,280 Descending New York Center
09:09PM 39.3553 -74.5325 37° Northeast 482 555 29,300 -2,580 Descending New York Center
09:10PM 39.4522 -74.4300 39° Northeast 465 535 26,800 -2,460 Descending New York Center
09:11PM 39.5536 -74.3250 39° Northeast 460 529 24,400 -1,440 Descending New York Center
09:12PM 39.6461 -74.2272 39° Northeast 443 510 24,000 -240 Descending New York Center
09:13PM 39.7408 -74.1264 39° Northeast 438 504 24,000  Level New York Center
09:14PM 39.8331 -74.0283 39° Northeast 438 504 24,000 -660 Level New York Center
09:15PM 39.9256 -73.9297 39° Northeast 438 504 22,700 -1,500 Descending New York Center
09:16PM 40.0156 -73.8336 39° Northeast 432 497 21,000 -1,740 Descending New York Center
09:18PM 40.1764 -73.6647 39° Northeast 422 486 17,900 -1,500 Descending Boston Center
09:19PM 40.2628 -73.5742 39° Northeast 402 463 16,900 -540 Descending Boston Center
09:20PM 40.3450 -73.4828 40° Northeast 391 450 16,900  Level Boston Center
09:21PM 40.4433 -73.4300 22° Northeast 385 443 16,900  Level Boston Center
09:22PM 40.5458 -73.3958 14° North 375 432 16,900 -300 Level Boston Center
09:23PM 40.6461 -73.3592 16° North 375 432 16,400 -840 Descending Boston Center
09:24PM 40.7667 -73.3000 20° North 322 371 15,100 -840 Descending New York TRACON
09:25PM 40.8333 -73.2167 43° Northeast 331 381 14,500 -1,200 Descending New York TRACON
09:26PM 40.8833 -73.1167 56° Northeast 363 418 12,700 -1,800 Descending New York TRACON
09:27PM 40.9333 -73.0167 56° Northeast 313 360 10,900 -1,620 Descending New York TRACON
09:28PM 41.0000 -72.9667 30° Northeast 282 325 9,500 -1,620 Descending New York TRACON
09:29PM 41.0333 -73.0500 298° West 257 296 7,700 -1,800 Descending New York TRACON
09:30PM 41.0667 -73.1333 298° West 255 293 6,000 -1,560 Descending New York TRACON
09:31PM 41.0833 -73.2000 288° West 251 289 4,800 -1,020 Descending New York TRACON
09:32PM 41.1167 -73.3000 294° West 259 298 4,000 -480 Descending New York TRACON
09:33PM 41.1500 -73.3833 298° West 249 287 3,900 -540 Descending New York TRACON
09:34PM 41.1000 -73.4667 231° Southwest 251 289 3,000 -480 Descending New York TRACON
09:35PM 41.0667 -73.5333 236° Southwest 241 277 3,000 -300 Level New York TRACON
09:37PM 41.0667 -73.7000 236° Southwest  Level FlightAware Approximate
09:37PM 41.0000 -73.6333 236° Southwest 166 191 2,100  Level New York TRACON
09:38PM 41.0000 -73.6667 270° West 136 157 1,300 -600 Descending New York TRACON
09:39PM 41.0333 -73.6833 339° North 116 133 900 -420 Descending New York TRACON
09:41PM 41.0667 -73.7000 236° Southwest  Level FlightAware Approximate
09:48PM 41.0669 -73.7076 236° Southwest  Level Estimated